Ririe, Idaho
Current Conditions -  °F | °C
As of 2:53 PM on Tuesday 25 Nov 2014 (Local Time) from KRXE Reporting Station
Overcast Overcast  
Wind Chill: 33°   Ceiling: 1900
Heat Index: 40°   Visibility: 10mi
Dew Point: 34°   Wind: 13mph
Humidity: 79%   Direction: 210°SSW
Pressure: 30.07"   Gusts: NA
Location:  43.63°N, 111.77°W
Report Text: KRXE 252153Z AUTO 21011KT 10SM OVC019 04/01 A3007 RMK AO2 SLP194 T00440011
Loading
Personal Weather Stations






























Interactive Weather Map New forecast layout! Learn more

10-Day Weather Forecast

Advertisements
Track Severe Weather on mobile